Time;durP1;ratioP1;P1;durP2;ratioP2;P2;SDS_P1;SDS_P2;PMS_P1;PMS_P2;Temp;Humidity;BMP_temperature;BMP_pressure;BME280_temperature;BME280_humidity;BME280_pressure;Samples;Min_cycle;Max_cycle;Signal;HPM_P1;HPM_P2
2022/09/26 00:02:06;;;;;;;;;;;;;;;10.41;79.88;100232.78;4973790;28;20289;-72
2022/09/26 00:05:10;;;;;;;;;;;;;;;10.61;79.51;100229.03;4974171;28;20281;-72
2022/09/26 00:08:14;;;;;;;;;;;;;;;10.45;80.26;100229.06;4974381;28;19925;-72
2022/09/26 00:11:21;;;;;;;;;;;;;;;10.40;79.76;100220.63;4974013;28;20261;-72
2022/09/26 00:14:26;;;;;;;;;;;;;;;10.50;79.14;100223.56;4974039;28;19921;-72
2022/09/26 00:17:29;;;;;;;;;;;;;;;10.29;80.06;100216.00;4973852;28;20371;-71
2022/09/26 00:20:35;;;;;;;;;;;;;;;10.51;79.29;100214.81;4974156;28;20268;-71
2022/09/26 00:23:39;;;;;;;;;;;;;;;10.45;79.29;100213.38;4973751;28;19925;-71
2022/09/26 00:26:42;;;;;;;;;;;;;;;10.39;79.87;100204.09;4974197;28;19996;-72
2022/09/26 00:29:45;;;;;;;;;;;;;;;10.44;79.92;100196.84;4973797;28;19964;-72
2022/09/26 00:32:53;;;;;;;;;;;;;;;10.24;80.65;100197.94;4973665;28;19925;-72
2022/09/26 00:35:56;;;;;;;;;;;;;;;10.29;80.45;100197.72;4961300;28;19925;-72
2022/09/26 00:39:00;;;;;;;;;;;;;;;10.31;80.65;100201.09;4964992;28;20458;-72
2022/09/26 00:42:03;;;;;;;;;;;;;;;10.39;80.95;100196.25;4977508;28;20009;-72
2022/09/26 00:45:07;;;;;;;;;;;;;;;10.42;80.36;100190.84;4977250;28;20017;-72
2022/09/26 00:48:10;;;;;;;;;;;;;;;10.44;80.53;100193.41;4965961;28;20026;-72
2022/09/26 00:51:14;;;;;;;;;;;;;;;10.50;80.64;100181.72;4965551;28;19921;-72
2022/09/26 00:54:18;;;;;;;;;;;;;;;10.38;81.03;100180.69;4965092;28;20309;-72
2022/09/26 00:57:23;;;;;;;;;;;;;;;10.45;80.86;100177.63;4965882;28;19921;-72
2022/09/26 01:00:28;;;;;;;;;;;;;;;10.43;80.56;100176.00;4965914;28;19922;-72
2022/09/26 01:03:31;;;;;;;;;;;;;;;10.31;81.39;100172.34;4977598;28;19929;-73
2022/09/26 01:06:35;;;;;;;;;;;;;;;10.28;81.22;100162.06;4977060;28;19920;-72
2022/09/26 01:09:38;;;;;;;;;;;;;;;10.37;80.50;100158.94;4964601;28;20221;-72
2022/09/26 01:12:42;;;;;;;;;;;;;;;10.11;81.22;100156.91;4965107;28;19925;-73
2022/09/26 01:15:45;;;;;;;;;;;;;;;10.12;81.12;100156.00;4965166;28;20061;-72
2022/09/26 01:18:50;;;;;;;;;;;;;;;10.19;80.96;100152.94;4965100;28;19941;-72
2022/09/26 01:22:12;;;;;;;;;;;;;;;10.13;80.61;100149.84;4964745;28;19968;-72
2022/09/26 01:25:16;;;;;;;;;;;;;;;10.16;80.24;100142.66;4965059;28;19940;-72
2022/09/26 01:28:42;;;;;;;;;;;;;;;10.08;80.16;100125.72;4976775;28;19960;-72
2022/09/26 01:35:30;;;;;;;;;;;;;;;10.11;79.72;100123.78;4964405;28;19969;-72
2022/09/26 01:38:38;;;;;;;;;;;;;;;10.06;79.97;100125.00;4964892;28;20032;-73
2022/09/26 01:41:48;;;;;;;;;;;;;;;10.20;79.34;100122.41;4964217;28;19945;-72
2022/09/26 01:44:51;;;;;;;;;;;;;;;10.10;79.38;100123.88;4964798;28;19929;-72
2022/09/26 01:48:07;;;;;;;;;;;;;;;10.13;79.49;100126.31;4976110;28;20005;-73
2022/09/26 01:51:09;;;;;;;;;;;;;;;10.04;80.18;100121.59;4976361;28;19929;-73
2022/09/26 01:54:19;;;;;;;;;;;;;;;9.95;80.90;100121.19;4964209;28;19933;-73
2022/09/26 01:57:27;;;;;;;;;;;;;;;10.08;80.63;100110.06;4964259;28;19936;-72
2022/09/26 02:00:31;;;;;;;;;;;;;;;10.10;80.69;100108.22;4964267;28;20379;-72
2022/09/26 02:03:37;;;;;;;;;;;;;;;10.12;81.01;100093.28;4976156;28;19924;-71
2022/09/26 02:06:49;;;;;;;;;;;;;;;9.95;81.48;100105.50;4975973;28;19961;-71
2022/09/26 02:09:58;;;;;;;;;;;;;;;10.07;80.66;100092.69;4975753;28;19921;-72
2022/09/26 02:13:07;;;;;;;;;;;;;;;10.06;80.20;100091.88;4963517;28;19925;-72
2022/09/26 02:16:13;;;;;;;;;;;;;;;10.13;79.43;100087.13;4964029;28;19924;-72
2022/09/26 02:19:23;;;;;;;;;;;;;;;10.00;79.12;100082.59;4963796;28;19921;-72
2022/09/26 02:22:29;;;;;;;;;;;;;;;9.87;80.02;100076.41;4958677;28;19920;-72
2022/09/26 02:25:33;;;;;;;;;;;;;;;9.92;79.71;100074.38;4955366;29;19973;-72
2022/09/26 02:28:36;;;;;;;;;;;;;;;9.80;80.47;100066.41;4955832;29;19925;-72
2022/09/26 02:31:54;;;;;;;;;;;;;;;9.80;80.48;100059.41;4955889;29;19936;-72
2022/09/26 02:34:59;;;;;;;;;;;;;;;9.85;80.26;100057.34;4955523;29;19960;-72
2022/09/26 02:38:05;;;;;;;;;;;;;;;9.96;79.76;100055.00;4955420;29;19962;-72
2022/09/26 02:41:14;;;;;;;;;;;;;;;9.89;79.07;100042.34;4955179;29;20050;-72
2022/09/26 02:44:36;;;;;;;;;;;;;;;9.80;79.59;100038.50;4955388;29;19925;-72
2022/09/26 02:47:43;;;;;;;;;;;;;;;10.04;79.09;100033.63;4955288;29;19969;-72
2022/09/26 02:51:05;;;;;;;;;;;;;;;9.83;79.21;100042.69;4957081;28;19921;-72
2022/09/26 02:54:09;;;;;;;;;;;;;;;9.81;79.82;100041.97;4963082;28;19944;-71
2022/09/26 02:57:38;;;;;;;;;;;;;;;9.94;79.26;100020.28;4974914;28;19925;-72
2022/09/26 03:00:48;;;;;;;;;;;;;;;9.94;78.91;100025.50;4974278;28;19921;-72
2022/09/26 03:04:05;;;;;;;;;;;;;;;10.02;78.86;100020.69;4963028;28;19933;-72
2022/09/26 03:07:10;;;;;;;;;;;;;;;9.84;78.97;100018.28;4961586;28;19925;-72
2022/09/26 03:10:15;;;;;;;;;;;;;;;9.98;79.14;100010.47;4973827;28;19924;-72
2022/09/26 03:13:19;;;;;;;;;;;;;;;9.83;79.54;100013.97;4962394;28;20416;-72
2022/09/26 03:16:29;;;;;;;;;;;;;;;9.79;79.82;100010.69;4962302;28;19925;-72
2022/09/26 03:19:48;;;;;;;;;;;;;;;9.84;79.50;100003.44;4962428;28;19921;-71
2022/09/26 03:22:52;;;;;;;;;;;;;;;9.81;79.77;100003.63;4962079;28;20329;-71
2022/09/26 03:26:07;;;;;;;;;;;;;;;9.86;79.09;100001.59;4961178;28;19924;-71
2022/09/26 03:29:12;;;;;;;;;;;;;;;9.78;79.38;99993.38;4953951;29;20154;-71
2022/09/26 03:32:17;;;;;;;;;;;;;;;9.79;79.11;99984.59;4942847;29;19969;-71
2022/09/26 03:35:21;;;;;;;;;;;;;;;9.68;79.30;99987.00;4942695;29;19968;-72
2022/09/26 03:38:25;;;;;;;;;;;;;;;9.84;78.80;99977.34;4947459;28;19969;-72
2022/09/26 03:41:38;;;;;;;;;;;;;;;9.76;78.62;99974.31;4943159;29;20321;-72
2022/09/26 03:44:47;;;;;;;;;;;;;;;9.69;79.17;99973.00;4943049;29;19945;-72
2022/09/26 03:48:15;;;;;;;;;;;;;;;9.76;78.38;99969.97;4955081;29;19988;-72
2022/09/26 03:51:20;;;;;;;;;;;;;;;9.58;79.80;99959.75;4942077;28;20020;-72
2022/09/26 03:54:23;;;;;;;;;;;;;;;9.70;79.83;99959.00;4942067;29;19977;-72
2022/09/26 03:57:34;;;;;;;;;;;;;;;9.80;79.48;99948.91;4955121;29;19920;-72
2022/09/26 04:06:18;;;;;;;;;;;;;;;9.78;79.83;99935.91;4954156;29;19958;-72
2022/09/26 04:52:21;;;;;;;;;;;;;;;9.70;80.61;99873.72;4851086;29;20161;-73
2022/09/26 04:55:25;;;;;;;;;;;;;;;9.64;80.44;99868.88;4931112;29;19929;-73
2022/09/26 04:58:31;;;;;;;;;;;;;;;9.62;80.88;99877.72;4931173;29;20190;-73
2022/09/26 05:01:36;;;;;;;;;;;;;;;9.73;80.23;99864.84;4918997;29;19937;-73
2022/09/26 05:04:47;;;;;;;;;;;;;;;9.64;80.54;99862.81;4919072;29;19925;-73
2022/09/26 05:07:51;;;;;;;;;;;;;;;9.71;80.50;99866.72;4919490;29;19969;-72
2022/09/26 05:10:55;;;;;;;;;;;;;;;9.72;80.89;99860.56;4919951;29;19922;-73
2022/09/26 05:14:00;;;;;;;;;;;;;;;9.66;81.03;99860.94;4921263;29;19921;-73
2022/09/26 05:17:06;;;;;;;;;;;;;;;9.67;81.20;99857.41;4918782;29;19921;-73
2022/09/26 05:20:09;;;;;;;;;;;;;;;9.55;81.28;99854.56;4918129;29;19921;-73
2022/09/26 05:26:46;;;;;;;;;;;;;;;9.68;81.41;99846.03;4917048;29;20314;-73
2022/09/26 05:29:55;;;;;;;;;;;;;;;9.72;81.26;99847.50;4921799;29;19921;-73
2022/09/26 05:33:04;;;;;;;;;;;;;;;9.45;82.70;99837.78;4922201;29;19921;-73
2022/09/26 05:36:07;;;;;;;;;;;;;;;9.09;84.92;99838.13;4933938;29;19926;-73
2022/09/26 05:42:38;;;;;;;;;;;;;;;9.38;82.35;99828.63;4947741;29;20009;-73
2022/09/26 05:45:41;;;;;;;;;;;;;;;9.36;83.01;99817.44;4940979;29;19981;-73
2022/09/26 05:48:47;;;;;;;;;;;;;;;9.50;82.67;99819.22;4942148;28;19960;-73
2022/09/26 05:51:58;;;;;;;;;;;;;;;9.32;82.55;99822.00;4943539;28;19941;-73
2022/09/26 05:55:04;;;;;;;;;;;;;;;9.28;82.95;99819.66;4953802;29;20273;-73
2022/09/26 05:58:42;;;;;;;;;;;;;;;9.38;82.44;99818.19;4927757;28;20294;-73
2022/09/26 06:01:51;;;;;;;;;;;;;;;9.41;82.17;99817.16;4952924;28;20330;-73
2022/09/26 06:05:10;;;;;;;;;;;;;;;9.46;82.43;99815.97;4939861;28;19924;-73
2022/09/26 06:08:14;;;;;;;;;;;;;;;9.30;83.13;99815.19;4952577;29;19920;-73
2022/09/26 06:11:29;;;;;;;;;;;;;;;9.19;83.55;99817.56;4951170;29;20527;-73
2022/09/26 06:14:33;;;;;;;;;;;;;;;9.05;84.18;99815.75;4951835;29;19965;-73
2022/09/26 06:17:35;;;;;;;;;;;;;;;9.21;83.77;99810.50;4951802;29;20001;-73
2022/09/26 06:20:38;;;;;;;;;;;;;;;9.08;84.32;99806.00;4951334;29;19942;-73
2022/09/26 06:23:42;;;;;;;;;;;;;;;9.13;83.66;99805.75;4952053;29;19980;-73
2022/09/26 06:26:47;;;;;;;;;;;;;;;9.08;84.34;99810.38;4946350;28;19973;-73
2022/09/26 06:29:50;;;;;;;;;;;;;;;9.06;84.83;99797.44;4952133;28;19921;-73
2022/09/26 06:32:54;;;;;;;;;;;;;;;8.77;85.94;99801.66;4952306;28;20389;-73
2022/09/26 06:36:16;;;;;;;;;;;;;;;8.61;87.59;99790.44;4950223;28;20413;-73
2022/09/26 06:39:19;;;;;;;;;;;;;;;8.74;87.00;99785.38;4951462;29;20464;-73
2022/09/26 06:42:24;;;;;;;;;;;;;;;8.63;87.87;99777.34;4962124;28;20349;-72
2022/09/26 06:45:47;;;;;;;;;;;;;;;8.89;87.20;99773.25;4952869;29;20472;-72
2022/09/26 06:49:00;;;;;;;;;;;;;;;8.95;87.29;99778.94;4951653;29;19942;-72
2022/09/26 06:52:21;;;;;;;;;;;;;;;8.88;87.84;99776.78;4950576;28;19926;-72
2022/09/26 06:55:26;;;;;;;;;;;;;;;9.25;86.60;99765.03;4950919;29;19926;-73
2022/09/26 06:58:29;;;;;;;;;;;;;;;9.26;86.47;99751.09;4926770;28;19988;-72
2022/09/26 07:02:02;;;;;;;;;;;;;;;9.33;87.36;99749.78;4939689;28;19969;-72
2022/09/26 07:05:29;;;;;;;;;;;;;;;9.47;86.22;99743.72;4974605;28;20057;-72
2022/09/26 07:08:32;;;;;;;;;;;;;;;9.19;87.33;99744.53;4963172;28;19941;-72
2022/09/26 07:11:36;;;;;;;;;;;;;;;9.27;87.51;99748.38;4974600;28;19921;-72
2022/09/26 07:14:40;;;;;;;;;;;;;;;9.23;87.98;99746.88;4963232;28;19929;-72
2022/09/26 07:17:55;;;;;;;;;;;;;;;9.28;88.12;99739.63;4963342;28;20277;-72
2022/09/26 07:21:07;;;;;;;;;;;;;;;9.69;86.83;99740.66;4963042;28;19968;-72
2022/09/26 07:24:36;;;;;;;;;;;;;;;9.86;86.71;99737.88;4963206;28;20289;-72
2022/09/26 07:27:40;;;;;;;;;;;;;;;10.04;86.73;99732.44;4963018;28;19921;-72
2022/09/26 07:30:43;;;;;;;;;;;;;;;10.28;86.15;99730.94;4962690;28;19929;-72
2022/09/26 07:33:53;;;;;;;;;;;;;;;10.43;86.54;99729.09;4962708;28;19936;-72
2022/09/26 07:36:58;;;;;;;;;;;;;;;10.60;85.83;99718.38;4951088;28;19925;-72
2022/09/26 07:40:01;;;;;;;;;;;;;;;10.73;86.75;99715.81;4952469;29;19937;-72
2022/09/26 07:43:07;;;;;;;;;;;;;;;10.83;85.81;99719.50;4943314;28;19977;-72
2022/09/26 07:53:11;;;;;;;;;;;;;;;11.23;79.50;99710.75;4929089;28;19941;-72
2022/09/26 07:56:47;;;;;;;;;;;;;;;11.20;79.88;99700.47;4958857;28;19976;-73
2022/09/26 08:00:18;;;;;;;;;;;;;;;11.30;79.71;99694.53;4970177;28;20040;-73
2022/09/26 08:03:33;;;;;;;;;;;;;;;11.37;78.40;99693.16;4939435;28;19922;-72
2022/09/26 08:06:41;;;;;;;;;;;;;;;11.43;78.09;99686.69;4952851;28;19968;-73
2022/09/26 08:09:44;;;;;;;;;;;;;;;11.43;77.96;99683.22;4958868;28;19968;-72
2022/09/26 08:13:08;;;;;;;;;;;;;;;11.47;77.60;99679.44;4925151;29;19965;-73
2022/09/26 08:16:29;;;;;;;;;;;;;;;11.57;76.27;99677.84;4919682;29;20410;-73
2022/09/26 08:19:35;;;;;;;;;;;;;;;11.62;76.21;99679.22;4925278;28;20286;-72
2022/09/26 08:22:39;;;;;;;;;;;;;;;11.68;77.15;99675.34;4957215;28;19961;-72
2022/09/26 08:25:43;;;;;;;;;;;;;;;11.77;76.40;99672.06;4957848;28;19925;-73
2022/09/26 08:29:12;;;;;;;;;;;;;;;11.78;75.61;99670.28;4958399;28;19918;-73
2022/09/26 08:32:18;;;;;;;;;;;;;;;11.80;75.66;99660.50;4958317;28;19936;-73
2022/09/26 08:35:21;;;;;;;;;;;;;;;11.74;74.25;99663.56;4957097;28;19925;-73
2022/09/26 08:38:27;;;;;;;;;;;;;;;11.69;74.17;99661.28;4969581;28;19960;-73
2022/09/26 08:42:16;;;;;;;;;;;;;;;11.79;73.76;99646.59;4969246;28;19972;-73
2022/09/26 08:46:31;;;;;;;;;;;;;;;12.03;73.80;99644.03;4969880;28;19928;-73
2022/09/26 08:50:01;;;;;;;;;;;;;;;12.12;73.02;99639.06;4956841;28;19921;-73
2022/09/26 08:53:09;;;;;;;;;;;;;;;12.22;71.06;99651.41;4927068;29;19920;-73
2022/09/26 08:56:24;;;;;;;;;;;;;;;12.39;70.52;99634.44;4938314;29;20385;-73
2022/09/26 08:59:32;;;;;;;;;;;;;;;12.56;70.82;99643.66;4940761;29;20324;-73
2022/09/26 09:02:38;;;;;;;;;;;;;;;12.50;69.05;99636.25;4941237;29;19920;-73
2022/09/26 09:05:48;;;;;;;;;;;;;;;12.59;67.80;99638.19;4942378;29;20002;-73
2022/09/26 09:08:55;;;;;;;;;;;;;;;12.63;66.49;99633.53;4942110;29;19957;-73
2022/09/26 09:12:02;;;;;;;;;;;;;;;12.67;66.11;99638.47;4942038;29;20014;-73
2022/09/26 09:15:16;;;;;;;;;;;;;;;12.61;66.38;99638.09;4941591;29;19921;-73
2022/09/26 09:18:55;;;;;;;;;;;;;;;12.54;66.99;99635.91;4952735;29;19937;-73
2022/09/26 09:22:46;;;;;;;;;;;;;;;12.51;66.85;99632.69;4953358;29;19972;-74
2022/09/26 09:26:14;;;;;;;;;;;;;;;12.57;66.80;99630.44;4941673;29;19925;-76
2022/09/26 09:29:18;;;;;;;;;;;;;;;12.49;66.77;99637.19;4941509;29;19921;-72
2022/09/26 09:32:41;;;;;;;;;;;;;;;12.47;66.43;99633.84;4940955;29;20364;-73
2022/09/26 09:35:58;;;;;;;;;;;;;;;12.39;66.52;99630.97;4941450;29;20009;-73
2022/09/26 09:39:26;;;;;;;;;;;;;;;12.59;67.02;99626.84;4952882;29;19922;-72
2022/09/26 09:43:08;;;;;;;;;;;;;;;12.74;66.66;99629.16;4940810;29;19964;-73
2022/09/26 09:46:12;;;;;;;;;;;;;;;12.72;66.50;99625.81;4940993;29;20017;-72
2022/09/26 09:49:19;;;;;;;;;;;;;;;12.77;66.32;99621.06;4941365;29;20065;-74
2022/09/26 09:52:42;;;;;;;;;;;;;;;12.78;65.52;99617.47;4965494;28;19921;-74
2022/09/26 09:55:55;;;;;;;;;;;;;;;12.79;65.74;99618.31;4971281;28;19925;-74
2022/09/26 09:59:06;;;;;;;;;;;;;;;12.84;64.83;99602.25;4941588;28;19985;-74
2022/09/26 10:02:33;;;;;;;;;;;;;;;12.82;64.29;99606.75;4936899;28;20393;-74
2022/09/26 10:05:45;;;;;;;;;;;;;;;12.79;64.62;99590.31;4944708;28;19973;-73
2022/09/26 10:09:25;;;;;;;;;;;;;;;12.87;64.51;99592.34;4939208;28;20297;-73
2022/09/26 10:12:50;;;;;;;;;;;;;;;12.95;63.71;99591.75;4951385;28;20324;-73
2022/09/26 10:16:13;;;;;;;;;;;;;;;12.77;64.08;99589.59;4933023;29;20274;-73
2022/09/26 10:19:38;;;;;;;;;;;;;;;12.64;64.23;99594.09;4931973;29;19965;-72
2022/09/26 10:22:44;;;;;;;;;;;;;;;12.51;64.62;99588.13;4931310;29;20277;-73
2022/09/26 10:25:59;;;;;;;;;;;;;;;12.56;65.51;99578.09;4932140;29;19973;-73
2022/09/26 10:29:20;;;;;;;;;;;;;;;12.69;65.49;99585.88;4938585;28;19925;-73
2022/09/26 10:32:25;;;;;;;;;;;;;;;12.54;64.49;99587.88;4959603;28;19952;-73
2022/09/26 10:35:41;;;;;;;;;;;;;;;12.74;64.90;99573.25;4959303;28;20282;-73
2022/09/26 10:42:30;;;;;;;;;;;;;;;12.74;63.94;99571.47;4944978;28;20314;-73
2022/09/26 10:45:34;;;;;;;;;;;;;;;12.77;64.26;99571.22;4957840;28;19925;-73
2022/09/26 10:48:45;;;;;;;;;;;;;;;12.93;64.16;99562.19;4970167;28;20008;-73
2022/09/26 10:52:14;;;;;;;;;;;;;;;12.97;63.86;99568.84;4930767;28;1151390;-73
2022/09/26 10:55:24;;;;;;;;;;;;;;;12.71;64.69;99568.25;4970805;28;20417;-73
2022/09/26 10:58:28;;;;;;;;;;;;;;;12.81;64.70;99553.47;4958486;28;19921;-73
2022/09/26 11:02:02;;;;;;;;;;;;;;;12.99;64.31;99556.47;4962445;28;19928;-73
2022/09/26 11:08:51;;;;;;;;;;;;;;;13.24;63.51;99556.25;4970348;28;19921;-73
2022/09/26 11:12:24;;;;;;;;;;;;;;;13.15;63.32;99541.19;4961930;28;19921;-73
2022/09/26 11:15:28;;;;;;;;;;;;;;;13.17;63.57;99539.25;4959005;28;19921;-73
2022/09/26 11:18:43;;;;;;;;;;;;;;;13.02;63.78;99545.72;4959279;28;19957;-73
2022/09/26 11:21:55;;;;;;;;;;;;;;;13.12;64.05;99533.53;4957234;28;20346;-73
2022/09/26 11:25:02;;;;;;;;;;;;;;;13.12;63.53;99533.53;4970561;28;20289;-73
2022/09/26 11:28:21;;;;;;;;;;;;;;;13.00;64.14;99532.72;4920448;29;20404;-73
2022/09/26 11:31:45;;;;;;;;;;;;;;;13.03;64.53;99521.97;4932298;29;19926;-73
2022/09/26 11:35:28;;;;;;;;;;;;;;;13.11;64.40;99521.34;4910566;29;19994;-73
2022/09/26 11:38:46;;;;;;;;;;;;;;;13.30;64.93;99525.19;4899328;29;19957;-73
2022/09/26 11:41:53;;;;;;;;;;;;;;;13.10;65.04;99530.19;4938284;28;19941;-73
2022/09/26 11:44:58;;;;;;;;;;;;;;;12.98;65.76;99518.03;4950938;28;19921;-73
2022/09/26 11:48:20;;;;;;;;;;;;;;;13.01;66.55;99515.16;4950732;28;20377;-73
2022/09/26 11:52:02;;;;;;;;;;;;;;;12.91;66.68;99517.69;4950184;28;19985;-73
2022/09/26 11:55:27;;;;;;;;;;;;;;;12.76;66.51;99514.47;4940985;28;19941;-73
2022/09/26 11:58:37;;;;;;;;;;;;;;;12.77;67.92;99510.06;4950646;28;19956;-73
2022/09/26 12:01:56;;;;;;;;;;;;;;;12.85;68.95;99504.22;4950105;28;20074;-73
2022/09/26 12:04:59;;;;;;;;;;;;;;;12.84;68.74;99508.63;4950466;28;19920;-73
2022/09/26 12:08:21;;;;;;;;;;;;;;;12.79;68.38;99495.88;4950370;28;20373;-73
2022/09/26 12:11:44;;;;;;;;;;;;;;;12.60;70.22;99487.75;4958764;28;19921;-73
2022/09/26 12:15:01;;;;;;;;;;;;;;;12.72;70.04;99475.47;4969394;28;20416;-73
2022/09/26 12:18:15;;;;;;;;;;;;;;;12.84;70.55;99465.81;4969238;28;19970;-73
2022/09/26 12:21:33;;;;;;;;;;;;;;;12.92;70.32;99463.41;4969070;28;20559;-73
2022/09/26 12:24:56;;;;;;;;;;;;;;;12.75;70.39;99454.25;4958913;28;20282;-73
2022/09/26 12:28:19;;;;;;;;;;;;;;;12.91;70.75;99443.38;4950429;28;20174;-73
2022/09/26 12:31:30;;;;;;;;;;;;;;;12.80;69.89;99446.88;4951127;28;20423;-72
2022/09/26 12:34:43;;;;;;;;;;;;;;;12.70;69.38;99430.16;4954491;28;19925;-72
2022/09/26 12:37:56;;;;;;;;;;;;;;;12.66;68.31;99426.13;4962735;28;19929;-73
2022/09/26 12:41:01;;;;;;;;;;;;;;;12.79;69.13;99418.94;4953119;28;20037;-73
2022/09/26 12:44:07;;;;;;;;;;;;;;;12.80;69.98;99416.22;4953804;28;19922;-72
2022/09/26 12:47:17;;;;;;;;;;;;;;;12.78;68.55;99412.88;4954600;28;19986;-73
2022/09/26 12:50:33;;;;;;;;;;;;;;;12.66;69.67;99392.84;4954309;28;19921;-72
2022/09/26 12:53:55;;;;;;;;;;;;;;;12.66;68.95;99392.03;4941946;29;19945;-73
2022/09/26 12:57:12;;;;;;;;;;;;;;;12.65;67.55;99390.38;4953933;28;20215;-72
2022/09/26 13:00:17;;;;;;;;;;;;;;;12.70;68.20;99381.19;4954650;28;19922;-72
2022/09/26 13:03:40;;;;;;;;;;;;;;;12.72;67.18;99381.88;4953661;28;19941;-73
2022/09/26 13:07:03;;;;;;;;;;;;;;;12.89;67.74;99370.06;4966751;28;19936;-73
2022/09/26 13:10:16;;;;;;;;;;;;;;;12.96;67.15;99365.16;4972871;28;20329;-72
2022/09/26 13:13:32;;;;;;;;;;;;;;;13.19;66.02;99343.13;4973365;28;19968;-72
2022/09/26 13:16:41;;;;;;;;;;;;;;;13.32;66.76;99344.78;4972477;28;19923;-72
2022/09/26 13:19:50;;;;;;;;;;;;;;;13.62;64.76;99333.50;4967775;28;20357;-73
2022/09/26 13:23:12;;;;;;;;;;;;;;;14.02;63.33;99330.13;4954424;28;20388;-72
2022/09/26 13:26:27;;;;;;;;;;;;;;;14.92;61.21;99314.34;4953297;28;19972;-72
2022/09/26 13:29:36;;;;;;;;;;;;;;;19.64;47.68;99288.56;4953978;28;20449;-72
2022/09/26 13:32:46;;;;;;;;;;;;;;;17.69;50.56;99302.91;4954844;28;19925;-73
2022/09/26 13:36:08;;;;;;;;;;;;;;;16.03;56.35;99278.69;4972007;28;19921;-73
2022/09/26 13:39:25;;;;;;;;;;;;;;;15.20;58.49;99281.09;4968195;28;19929;-73
2022/09/26 13:42:44;;;;;;;;;;;;;;;15.06;58.69;99278.88;4952755;28;20033;-72
2022/09/26 13:46:03;;;;;;;;;;;;;;;15.04;59.48;99271.13;4952557;28;20273;-74
2022/09/26 13:49:19;;;;;;;;;;;;;;;14.93;58.78;99268.63;4962078;28;19921;-72
2022/09/26 13:52:43;;;;;;;;;;;;;;;14.79;58.85;99266.41;4940411;29;20341;-75
2022/09/26 13:56:07;;;;;;;;;;;;;;;14.56;59.12;99260.59;4953487;28;19921;-72
2022/09/26 13:59:10;;;;;;;;;;;;;;;14.41;58.66;99257.47;4952424;28;19968;-71
2022/09/26 14:02:23;;;;;;;;;;;;;;;14.20;59.60;99262.84;4953300;28;19929;-73
2022/09/26 14:05:27;;;;;;;;;;;;;;;13.93;59.55;99258.16;4970984;28;20008;-72
2022/09/26 14:12:14;;;;;;;;;;;;;;;14.18;59.15;99238.47;4956847;28;20293;-72
2022/09/26 14:15:19;;;;;;;;;;;;;;;14.15;59.67;99233.47;4951835;28;19918;-72
2022/09/26 14:18:23;;;;;;;;;;;;;;;14.17;58.51;99234.19;4961618;28;19985;-72
2022/09/26 14:21:45;;;;;;;;;;;;;;;14.22;59.55;99218.00;4952532;28;19926;-72
2022/09/26 14:24:49;;;;;;;;;;;;;;;14.19;59.58;99212.03;4950904;28;19922;-72
2022/09/26 14:28:07;;;;;;;;;;;;;;;14.19;59.50;99212.03;4952201;28;20295;-72
2022/09/26 14:31:32;;;;;;;;;;;;;;;14.11;59.92;99206.63;4955596;28;19921;-72
2022/09/26 14:35:03;;;;;;;;;;;;;;;14.15;60.34;99197.50;4947644;28;20346;-72
2022/09/26 14:38:09;;;;;;;;;;;;;;;14.06;60.18;99200.13;4946616;28;20022;-72
2022/09/26 14:41:20;;;;;;;;;;;;;;;13.96;61.07;99202.72;4951972;28;19922;-73
2022/09/26 14:44:27;;;;;;;;;;;;;;;13.86;60.30;99193.97;4948072;28;19921;-73
2022/09/26 14:47:49;;;;;;;;;;;;;;;13.85;60.90;99192.31;4932774;29;20270;-72
2022/09/26 14:51:17;;;;;;;;;;;;;;;13.73;60.11;99195.03;4958400;28;19921;-73
2022/09/26 14:54:26;;;;;;;;;;;;;;;13.80;61.12;99173.50;4950989;28;19920;-73
2022/09/26 14:57:31;;;;;;;;;;;;;;;13.70;61.03;99184.78;4950316;28;19961;-73
2022/09/26 15:00:41;;;;;;;;;;;;;;;13.71;61.39;99181.19;4961330;28;19969;-72
2022/09/26 15:03:51;;;;;;;;;;;;;;;13.63;62.61;99180.22;4937431;28;19934;-72
2022/09/26 15:06:59;;;;;;;;;;;;;;;13.59;61.86;99171.78;4931978;29;20262;-72
2022/09/26 15:10:12;;;;;;;;;;;;;;;13.59;61.67;99166.53;4951259;28;19937;-72
2022/09/26 15:13:15;;;;;;;;;;;;;;;13.58;62.12;99167.47;4948267;28;20022;-72
2022/09/26 15:16:19;;;;;;;;;;;;;;;13.57;63.25;99163.19;4931284;29;19969;-72
2022/09/26 15:19:27;;;;;;;;;;;;;;;13.50;63.58;99162.06;4937505;28;19943;-72
2022/09/26 15:22:30;;;;;;;;;;;;;;;13.44;64.69;99152.09;4952075;28;19972;-72
2022/09/26 15:25:37;;;;;;;;;;;;;;;13.42;65.13;99152.19;4952015;28;19921;-73
2022/09/26 15:28:40;;;;;;;;;;;;;;;13.37;64.71;99149.16;4957103;28;19921;-72
2022/09/26 15:31:43;;;;;;;;;;;;;;;13.43;68.87;99147.78;4956512;28;19966;-73
2022/09/26 15:34:48;;;;;;;;;;;;;;;13.30;72.69;99144.53;4950737;28;19917;-72
2022/09/26 15:38:02;;;;;;;;;;;;;;;13.26;69.84;99142.19;4950267;28;19950;-72
2022/09/26 15:41:13;;;;;;;;;;;;;;;13.18;72.74;99141.16;4950747;28;19937;-73
2022/09/26 15:44:21;;;;;;;;;;;;;;;13.13;77.23;99146.78;4966329;28;19921;-72
2022/09/26 15:47:28;;;;;;;;;;;;;;;13.07;76.63;99138.59;4969643;28;20457;-72
2022/09/26 15:50:44;;;;;;;;;;;;;;;13.01;77.83;99143.38;4967853;28;19925;-72
2022/09/26 15:54:00;;;;;;;;;;;;;;;12.97;80.98;99143.78;4969738;28;20027;-72
2022/09/26 15:57:06;;;;;;;;;;;;;;;12.95;81.42;99148.31;4967822;28;19958;-72
2022/09/26 16:00:14;;;;;;;;;;;;;;;12.97;81.83;99146.41;4969879;28;19976;-72
2022/09/26 16:03:33;;;;;;;;;;;;;;;12.91;82.73;99145.13;4957969;28;19925;-72
2022/09/26 16:06:40;;;;;;;;;;;;;;;12.86;83.46;99146.47;4968918;28;19920;-72
2022/09/26 16:09:44;;;;;;;;;;;;;;;12.76;84.42;99147.25;4957381;28;20017;-72
2022/09/26 16:12:48;;;;;;;;;;;;;;;12.83;84.50;99147.59;4966655;28;20277;-72
2022/09/26 16:16:06;;;;;;;;;;;;;;;12.67;84.66;99153.28;4950615;28;19922;-72
2022/09/26 16:19:26;;;;;;;;;;;;;;;12.86;84.06;99141.22;4949312;28;19921;-72
2022/09/26 16:22:43;;;;;;;;;;;;;;;12.75;84.71;99142.97;4950165;28;20250;-72
2022/09/26 16:25:48;;;;;;;;;;;;;;;12.79;84.07;99123.41;4954526;28;20473;-72
2022/09/26 16:28:53;;;;;;;;;;;;;;;12.86;83.63;99122.84;4969432;28;19925;-72
2022/09/26 16:31:58;;;;;;;;;;;;;;;12.66;80.42;99109.63;4969219;28;19941;-73
2022/09/26 16:35:18;;;;;;;;;;;;;;;12.54;78.03;99115.91;4968778;28;19968;-73
2022/09/26 16:38:26;;;;;;;;;;;;;;;12.59;76.93;99098.00;4969622;28;19941;-73
2022/09/26 16:41:37;;;;;;;;;;;;;;;12.36;77.95;99096.47;4968504;28;19940;-73
2022/09/26 16:44:48;;;;;;;;;;;;;;;12.39;81.08;99097.03;4969774;28;19928;-72
2022/09/26 16:47:53;;;;;;;;;;;;;;;12.23;82.78;99097.47;4967088;28;19940;-73
2022/09/26 16:51:12;;;;;;;;;;;;;;;12.39;82.48;99096.22;4958946;28;20276;-73
2022/09/26 16:54:20;;;;;;;;;;;;;;;12.31;83.08;99095.03;4972452;28;19968;-73
2022/09/26 16:57:30;;;;;;;;;;;;;;;12.34;84.39;99091.31;4972044;28;20281;-73
2022/09/26 17:03:56;;;;;;;;;;;;;;;12.56;84.17;99085.13;4972167;28;19965;-73
2022/09/26 17:07:06;;;;;;;;;;;;;;;12.40;83.28;99080.34;4966966;28;19921;-73
2022/09/26 17:10:11;;;;;;;;;;;;;;;12.49;84.15;99082.19;4955631;28;19957;-73
2022/09/26 17:13:17;;;;;;;;;;;;;;;12.55;84.25;99076.44;4960497;28;20376;-73
2022/09/26 17:16:22;;;;;;;;;;;;;;;12.53;83.63;99073.09;4957642;28;19956;-73
2022/09/26 17:19:32;;;;;;;;;;;;;;;12.44;83.79;99066.00;4957159;28;19941;-73
2022/09/26 17:22:39;;;;;;;;;;;;;;;12.33;84.62;99064.28;4945047;29;19924;-73
2022/09/26 17:25:48;;;;;;;;;;;;;;;12.30;85.01;99069.78;4956039;28;19921;-73
2022/09/26 17:28:52;;;;;;;;;;;;;;;12.20;85.43;99057.56;4942151;29;19925;-73
2022/09/26 17:31:57;;;;;;;;;;;;;;;12.35;85.09;99053.69;4957182;29;19921;-73
2022/09/26 17:35:01;;;;;;;;;;;;;;;12.38;84.13;99047.34;4942041;28;20380;-73
2022/09/26 17:38:05;;;;;;;;;;;;;;;12.29;84.89;99039.31;4965350;28;19976;-73
2022/09/26 17:41:11;;;;;;;;;;;;;;;12.29;84.51;99039.31;4964664;28;19997;-72
2022/09/26 17:44:14;;;;;;;;;;;;;;;12.09;84.45;99027.84;4953337;28;19929;-72
2022/09/26 17:47:18;;;;;;;;;;;;;;;12.18;84.76;99023.63;4611475;28;10000638;-73
2022/09/26 17:50:24;;;;;;;;;;;;;;;12.04;85.42;99024.78;4961354;28;19925;-73
2022/09/26 17:53:34;;;;;;;;;;;;;;;12.25;85.05;99021.31;4962391;28;19968;-72
2022/09/26 17:56:37;;;;;;;;;;;;;;;12.12;84.54;99016.25;4955133;28;19920;-72
2022/09/26 17:59:41;;;;;;;;;;;;;;;12.16;84.79;99022.94;4967368;28;20049;-73